sensor_id;sensor_type;location;lat;lon;timestamp;P1;durP1;ratioP1;P2;durP2;ratioP2
54408;SDS011;40315;48.620;9.828;2023-02-27T00:38:55;2.37;;;1.40;;
54408;SDS011;40315;48.620;9.828;2023-02-27T00:41:24;1.47;;;1.00;;
54408;SDS011;40315;48.620;9.828;2023-02-27T00:43:51;4.10;;;1.50;;
54408;SDS011;40315;48.620;9.828;2023-02-27T00:46:18;1.90;;;1.40;;
54408;SDS011;40315;48.620;9.828;2023-02-27T00:48:45;1.87;;;1.30;;
54408;SDS011;40315;48.620;9.828;2023-02-27T00:51:13;4.37;;;1.20;;
54408;SDS011;40315;48.620;9.828;2023-02-27T00:53:40;3.53;;;1.43;;
54408;SDS011;40315;48.620;9.828;2023-02-27T00:56:08;1.77;;;1.43;;
54408;SDS011;40315;48.620;9.828;2023-02-27T00:58:36;2.03;;;1.30;;
54408;SDS011;40315;48.620;9.828;2023-02-27T01:01:03;1.50;;;1.40;;
54408;SDS011;40315;48.620;9.828;2023-02-27T01:03:30;3.73;;;1.50;;
54408;SDS011;40315;48.620;9.828;2023-02-27T01:05:57;2.20;;;1.30;;
54408;SDS011;40315;48.620;9.828;2023-02-27T01:08:25;1.63;;;1.20;;
54408;SDS011;40315;48.620;9.828;2023-02-27T01:10:52;2.53;;;1.33;;
54408;SDS011;40315;48.620;9.828;2023-02-27T01:13:22;3.73;;;1.33;;
54408;SDS011;40315;48.620;9.828;2023-02-27T01:15:49;4.17;;;1.40;;
54408;SDS011;40315;48.620;9.828;2023-02-27T01:18:16;2.80;;;1.60;;
54408;SDS011;40315;48.620;9.828;2023-02-27T01:20:43;1.20;;;1.10;;
54408;SDS011;40315;48.620;9.828;2023-02-27T01:23:11;1.77;;;1.30;;
54408;SDS011;40315;48.620;9.828;2023-02-27T01:25:39;1.70;;;1.30;;
54408;SDS011;40315;48.620;9.828;2023-02-27T01:28:06;1.63;;;1.30;;
54408;SDS011;40315;48.620;9.828;2023-02-27T01:30:36;3.43;;;1.63;;
54408;SDS011;40315;48.620;9.828;2023-02-27T01:33:05;1.90;;;1.30;;
54408;SDS011;40315;48.620;9.828;2023-02-27T01:35:33;2.67;;;1.60;;
54408;SDS011;40315;48.620;9.828;2023-02-27T01:38:00;2.10;;;1.50;;
54408;SDS011;40315;48.620;9.828;2023-02-27T01:40:27;1.50;;;1.40;;
54408;SDS011;40315;48.620;9.828;2023-02-27T01:42:57;2.07;;;1.40;;
54408;SDS011;40315;48.620;9.828;2023-02-27T03:27:46;4.80;;;1.90;;
54408;SDS011;40315;48.620;9.828;2023-02-27T03:30:17;3.40;;;2.00;;
54408;SDS011;40315;48.620;9.828;2023-02-27T03:32:52;2.00;;;1.60;;
54408;SDS011;40315;48.620;9.828;2023-02-27T03:35:28;2.17;;;1.63;;
54408;SDS011;40315;48.620;9.828;2023-02-27T03:38:05;2.90;;;1.90;;
54408;SDS011;40315;48.620;9.828;2023-02-27T03:40:38;2.37;;;2.10;;
54408;SDS011;40315;48.620;9.828;2023-02-27T03:43:15;5.13;;;2.10;;
54408;SDS011;40315;48.620;9.828;2023-02-27T03:45:53;3.40;;;2.00;;
54408;SDS011;40315;48.620;9.828;2023-02-27T03:48:26;3.30;;;1.87;;
54408;SDS011;40315;48.620;9.828;2023-02-27T03:50:54;2.37;;;2.10;;
54408;SDS011;40315;48.620;9.828;2023-02-27T03:53:24;2.70;;;1.90;;
54408;SDS011;40315;48.620;9.828;2023-02-27T03:55:55;2.53;;;1.90;;
54408;SDS011;40315;48.620;9.828;2023-02-27T03:58:26;2.20;;;1.80;;
54408;SDS011;40315;48.620;9.828;2023-02-27T04:00:54;4.37;;;2.00;;
54408;SDS011;40315;48.620;9.828;2023-02-27T04:03:22;4.23;;;2.00;;
54408;SDS011;40315;48.620;9.828;2023-02-27T04:05:51;3.13;;;2.00;;
54408;SDS011;40315;48.620;9.828;2023-02-27T04:11:15;2.77;;;1.80;;
54408;SDS011;40315;48.620;9.828;2023-02-27T04:13:55;4.20;;;2.07;;
54408;SDS011;40315;48.620;9.828;2023-02-27T04:16:40;2.97;;;2.07;;
54408;SDS011;40315;48.620;9.828;2023-02-27T04:19:30;3.53;;;2.20;;
54408;SDS011;40315;48.620;9.828;2023-02-27T04:22:09;4.33;;;2.10;;
54408;SDS011;40315;48.620;9.828;2023-02-27T04:24:50;4.67;;;2.30;;
54408;SDS011;40315;48.620;9.828;2023-02-27T04:27:25;3.60;;;2.20;;
54408;SDS011;40315;48.620;9.828;2023-02-27T04:30:03;3.50;;;2.30;;
54408;SDS011;40315;48.620;9.828;2023-02-27T04:32:42;5.90;;;2.40;;
54408;SDS011;40315;48.620;9.828;2023-02-27T04:35:19;6.37;;;2.53;;
54408;SDS011;40315;48.620;9.828;2023-02-27T04:37:54;2.80;;;1.97;;
54408;SDS011;40315;48.620;9.828;2023-02-27T04:40:26;3.83;;;2.00;;
54408;SDS011;40315;48.620;9.828;2023-02-27T04:42:59;2.83;;;2.30;;
54408;SDS011;40315;48.620;9.828;2023-02-27T04:45:29;2.97;;;2.00;;
54408;SDS011;40315;48.620;9.828;2023-02-27T04:48:06;3.50;;;2.20;;
54408;SDS011;40315;48.620;9.828;2023-02-27T04:50:39;2.83;;;2.47;;
54408;SDS011;40315;48.620;9.828;2023-02-27T04:53:10;4.20;;;2.37;;
54408;SDS011;40315;48.620;9.828;2023-02-27T04:55:46;3.50;;;2.50;;
54408;SDS011;40315;48.620;9.828;2023-02-27T04:58:18;3.20;;;2.33;;
54408;SDS011;40315;48.620;9.828;2023-02-27T05:00:50;3.60;;;2.40;;
54408;SDS011;40315;48.620;9.828;2023-02-27T05:03:23;2.90;;;2.20;;
54408;SDS011;40315;48.620;9.828;2023-02-27T05:05:56;2.93;;;2.30;;
54408;SDS011;40315;48.620;9.828;2023-02-27T05:08:27;4.03;;;2.47;;
54408;SDS011;40315;48.620;9.828;2023-02-27T05:10:59;2.77;;;2.13;;
54408;SDS011;40315;48.620;9.828;2023-02-27T05:13:33;3.00;;;2.10;;
54408;SDS011;40315;48.620;9.828;2023-02-27T05:16:07;6.00;;;2.80;;
54408;SDS011;40315;48.620;9.828;2023-02-27T05:18:39;2.43;;;2.07;;
54408;SDS011;40315;48.620;9.828;2023-02-27T05:21:13;3.30;;;2.20;;
54408;SDS011;40315;48.620;9.828;2023-02-27T05:23:49;4.33;;;2.63;;
54408;SDS011;40315;48.620;9.828;2023-02-27T05:26:34;2.77;;;2.07;;
54408;SDS011;40315;48.620;9.828;2023-02-27T05:29:14;4.23;;;2.37;;
54408;SDS011;40315;48.620;9.828;2023-02-27T05:31:48;4.20;;;2.47;;
54408;SDS011;40315;48.620;9.828;2023-02-27T05:34:20;5.23;;;2.07;;
54408;SDS011;40315;48.620;9.828;2023-02-27T05:36:52;3.20;;;2.70;;
54408;SDS011;40315;48.620;9.828;2023-02-27T05:39:23;4.23;;;2.40;;
54408;SDS011;40315;48.620;9.828;2023-02-27T05:41:55;3.87;;;2.53;;
54408;SDS011;40315;48.620;9.828;2023-02-27T05:44:26;3.57;;;2.37;;
54408;SDS011;40315;48.620;9.828;2023-02-27T05:46:58;3.77;;;2.53;;
54408;SDS011;40315;48.620;9.828;2023-02-27T05:49:28;3.03;;;2.40;;
54408;SDS011;40315;48.620;9.828;2023-02-27T05:51:58;4.50;;;2.83;;
54408;SDS011;40315;48.620;9.828;2023-02-27T05:54:31;3.47;;;2.30;;
54408;SDS011;40315;48.620;9.828;2023-02-27T05:57:03;4.67;;;2.67;;
54408;SDS011;40315;48.620;9.828;2023-02-27T05:59:39;3.13;;;2.50;;
54408;SDS011;40315;48.620;9.828;2023-02-27T06:02:11;5.90;;;3.17;;
54408;SDS011;40315;48.620;9.828;2023-02-27T06:04:39;3.57;;;2.63;;
54408;SDS011;40315;48.620;9.828;2023-02-27T06:07:06;3.87;;;2.80;;
54408;SDS011;40315;48.620;9.828;2023-02-27T06:09:33;4.13;;;2.83;;
54408;SDS011;40315;48.620;9.828;2023-02-27T06:12:01;5.70;;;3.23;;
54408;SDS011;40315;48.620;9.828;2023-02-27T06:14:28;7.23;;;3.70;;
54408;SDS011;40315;48.620;9.828;2023-02-27T06:16:57;5.17;;;3.23;;
54408;SDS011;40315;48.620;9.828;2023-02-27T06:19:25;5.00;;;3.37;;
54408;SDS011;40315;48.620;9.828;2023-02-27T06:21:52;6.80;;;4.00;;
54408;SDS011;40315;48.620;9.828;2023-02-27T06:24:19;4.67;;;3.20;;
54408;SDS011;40315;48.620;9.828;2023-02-27T06:26:47;6.67;;;3.10;;
54408;SDS011;40315;48.620;9.828;2023-02-27T06:29:13;5.33;;;3.30;;
54408;SDS011;40315;48.620;9.828;2023-02-27T06:31:43;4.87;;;3.37;;
54408;SDS011;40315;48.620;9.828;2023-02-27T06:34:12;4.50;;;3.07;;
54408;SDS011;40315;48.620;9.828;2023-02-27T06:36:41;4.93;;;3.10;;
54408;SDS011;40315;48.620;9.828;2023-02-27T06:39:10;4.67;;;3.30;;
54408;SDS011;40315;48.620;9.828;2023-02-27T06:41:37;4.60;;;2.97;;
54408;SDS011;40315;48.620;9.828;2023-02-27T06:44:04;3.20;;;2.70;;
54408;SDS011;40315;48.620;9.828;2023-02-27T06:46:31;5.33;;;3.00;;
54408;SDS011;40315;48.620;9.828;2023-02-27T06:48:58;3.77;;;3.17;;
54408;SDS011;40315;48.620;9.828;2023-02-27T06:51:25;3.40;;;2.90;;
54408;SDS011;40315;48.620;9.828;2023-02-27T06:53:54;3.67;;;2.63;;
54408;SDS011;40315;48.620;9.828;2023-02-27T06:56:21;5.13;;;3.07;;
54408;SDS011;40315;48.620;9.828;2023-02-27T06:58:48;4.43;;;3.03;;
54408;SDS011;40315;48.620;9.828;2023-02-27T07:01:17;4.40;;;3.27;;
54408;SDS011;40315;48.620;9.828;2023-02-27T07:03:46;4.67;;;3.60;;
54408;SDS011;40315;48.620;9.828;2023-02-27T07:06:13;5.53;;;3.37;;
54408;SDS011;40315;48.620;9.828;2023-02-27T07:08:40;5.73;;;3.57;;
54408;SDS011;40315;48.620;9.828;2023-02-27T07:11:08;7.60;;;3.30;;
54408;SDS011;40315;48.620;9.828;2023-02-27T07:13:35;5.50;;;3.30;;
54408;SDS011;40315;48.620;9.828;2023-02-27T07:16:02;8.03;;;3.40;;
54408;SDS011;40315;48.620;9.828;2023-02-27T07:18:30;5.43;;;3.33;;
54408;SDS011;40315;48.620;9.828;2023-02-27T07:20:57;6.50;;;3.53;;
54408;SDS011;40315;48.620;9.828;2023-02-27T07:23:26;3.43;;;3.07;;
54408;SDS011;40315;48.620;9.828;2023-02-27T07:25:55;5.10;;;2.90;;
54408;SDS011;40315;48.620;9.828;2023-02-27T07:28:23;5.43;;;3.17;;
54408;SDS011;40315;48.620;9.828;2023-02-27T07:30:52;5.00;;;3.43;;
54408;SDS011;40315;48.620;9.828;2023-02-27T07:33:20;4.60;;;3.07;;
54408;SDS011;40315;48.620;9.828;2023-02-27T07:35:50;4.83;;;3.30;;
54408;SDS011;40315;48.620;9.828;2023-02-27T07:38:17;4.73;;;2.80;;
54408;SDS011;40315;48.620;9.828;2023-02-27T07:40:46;5.10;;;3.00;;
54408;SDS011;40315;48.620;9.828;2023-02-27T07:43:13;5.03;;;3.20;;
54408;SDS011;40315;48.620;9.828;2023-02-27T07:45:43;5.03;;;3.03;;
54408;SDS011;40315;48.620;9.828;2023-02-27T07:48:10;4.70;;;2.80;;
54408;SDS011;40315;48.620;9.828;2023-02-27T07:50:37;3.57;;;2.60;;
54408;SDS011;40315;48.620;9.828;2023-02-27T07:53:04;5.67;;;3.27;;
54408;SDS011;40315;48.620;9.828;2023-02-27T07:55:32;4.37;;;3.20;;
54408;SDS011;40315;48.620;9.828;2023-02-27T07:57:59;4.70;;;3.03;;
54408;SDS011;40315;48.620;9.828;2023-02-27T08:00:26;4.93;;;3.43;;
54408;SDS011;40315;48.620;9.828;2023-02-27T08:02:55;5.03;;;2.90;;
54408;SDS011;40315;48.620;9.828;2023-02-27T08:05:22;4.30;;;3.03;;
54408;SDS011;40315;48.620;9.828;2023-02-27T08:07:49;5.17;;;3.17;;
54408;SDS011;40315;48.620;9.828;2023-02-27T08:10:16;3.27;;;2.77;;
54408;SDS011;40315;48.620;9.828;2023-02-27T08:12:43;3.60;;;2.70;;
54408;SDS011;40315;48.620;9.828;2023-02-27T08:15:10;5.27;;;3.07;;
54408;SDS011;40315;48.620;9.828;2023-02-27T08:17:37;5.67;;;2.80;;
54408;SDS011;40315;48.620;9.828;2023-02-27T08:20:07;4.43;;;3.20;;
54408;SDS011;40315;48.620;9.828;2023-02-27T08:22:38;4.07;;;2.50;;
54408;SDS011;40315;48.620;9.828;2023-02-27T08:25:06;4.50;;;3.00;;
54408;SDS011;40315;48.620;9.828;2023-02-27T08:27:35;4.37;;;2.80;;
54408;SDS011;40315;48.620;9.828;2023-02-27T08:30:02;5.70;;;3.17;;
54408;SDS011;40315;48.620;9.828;2023-02-27T08:32:30;4.13;;;2.90;;
54408;SDS011;40315;48.620;9.828;2023-02-27T08:34:57;4.67;;;2.80;;
54408;SDS011;40315;48.620;9.828;2023-02-27T08:37:26;4.30;;;2.60;;
54408;SDS011;40315;48.620;9.828;2023-02-27T08:39:55;4.77;;;2.60;;
54408;SDS011;40315;48.620;9.828;2023-02-27T08:42:22;3.43;;;2.63;;
54408;SDS011;40315;48.620;9.828;2023-02-27T08:44:49;5.40;;;2.60;;
54408;SDS011;40315;48.620;9.828;2023-02-27T08:47:16;3.73;;;2.50;;
54408;SDS011;40315;48.620;9.828;2023-02-27T08:49:44;3.30;;;2.23;;
54408;SDS011;40315;48.620;9.828;2023-02-27T08:52:11;3.00;;;2.20;;
54408;SDS011;40315;48.620;9.828;2023-02-27T08:54:41;3.60;;;2.40;;
54408;SDS011;40315;48.620;9.828;2023-02-27T08:57:08;2.97;;;2.27;;
54408;SDS011;40315;48.620;9.828;2023-02-27T08:59:35;3.13;;;2.30;;
54408;SDS011;40315;48.620;9.828;2023-02-27T09:02:05;3.57;;;2.10;;
54408;SDS011;40315;48.620;9.828;2023-02-27T09:04:32;4.67;;;2.70;;
54408;SDS011;40315;48.620;9.828;2023-02-27T09:07:00;3.97;;;2.10;;
54408;SDS011;40315;48.620;9.828;2023-02-27T09:09:29;4.33;;;2.30;;
54408;SDS011;40315;48.620;9.828;2023-02-27T09:12:00;2.93;;;2.07;;
54408;SDS011;40315;48.620;9.828;2023-02-27T09:14:28;3.40;;;2.27;;
54408;SDS011;40315;48.620;9.828;2023-02-27T09:16:55;2.30;;;2.10;;
54408;SDS011;40315;48.620;9.828;2023-02-27T09:19:22;3.10;;;2.33;;
54408;SDS011;40315;48.620;9.828;2023-02-27T09:21:49;2.80;;;2.30;;
54408;SDS011;40315;48.620;9.828;2023-02-27T09:24:16;2.60;;;2.07;;
54408;SDS011;40315;48.620;9.828;2023-02-27T09:26:46;3.47;;;2.20;;
54408;SDS011;40315;48.620;9.828;2023-02-27T09:29:15;3.40;;;2.00;;
54408;SDS011;40315;48.620;9.828;2023-02-27T09:31:43;2.33;;;2.07;;
54408;SDS011;40315;48.620;9.828;2023-02-27T09:34:10;3.23;;;2.20;;
54408;SDS011;40315;48.620;9.828;2023-02-27T09:36:37;4.17;;;2.10;;
54408;SDS011;40315;48.620;9.828;2023-02-27T09:39:04;2.47;;;2.13;;
54408;SDS011;40315;48.620;9.828;2023-02-27T09:41:39;3.23;;;2.40;;
54408;SDS011;40315;48.620;9.828;2023-02-27T09:44:20;2.23;;;2.00;;
54408;SDS011;40315;48.620;9.828;2023-02-27T09:46:54;3.67;;;2.20;;
54408;SDS011;40315;48.620;9.828;2023-02-27T09:49:23;3.63;;;2.40;;
54408;SDS011;40315;48.620;9.828;2023-02-27T09:51:57;3.97;;;1.90;;
54408;SDS011;40315;48.620;9.828;2023-02-27T09:54:24;2.90;;;2.40;;
54408;SDS011;40315;48.620;9.828;2023-02-27T09:56:57;3.70;;;2.23;;
54408;SDS011;40315;48.620;9.828;2023-02-27T09:59:30;3.20;;;1.87;;
54408;SDS011;40315;48.620;9.828;2023-02-27T10:02:04;2.13;;;1.93;;
54408;SDS011;40315;48.620;9.828;2023-02-27T10:04:43;3.57;;;1.90;;
54408;SDS011;40315;48.620;9.828;2023-02-27T10:07:18;2.40;;;2.03;;
54408;SDS011;40315;48.620;9.828;2023-02-27T10:09:53;1.97;;;1.40;;
54408;SDS011;40315;48.620;9.828;2023-02-27T10:12:44;3.93;;;1.93;;
54408;SDS011;40315;48.620;9.828;2023-02-27T10:15:23;3.90;;;1.93;;
54408;SDS011;40315;48.620;9.828;2023-02-27T10:17:54;2.60;;;2.10;;
54408;SDS011;40315;48.620;9.828;2023-02-27T10:20:25;3.10;;;2.17;;
54408;SDS011;40315;48.620;9.828;2023-02-27T10:22:54;4.40;;;1.80;;
54408;SDS011;40315;48.620;9.828;2023-02-27T10:25:25;2.77;;;1.97;;
54408;SDS011;40315;48.620;9.828;2023-02-27T10:27:54;3.17;;;2.00;;
54408;SDS011;40315;48.620;9.828;2023-02-27T10:30:26;2.67;;;1.90;;
54408;SDS011;40315;48.620;9.828;2023-02-27T10:32:55;3.00;;;1.90;;
54408;SDS011;40315;48.620;9.828;2023-02-27T10:35:32;2.87;;;2.13;;
54408;SDS011;40315;48.620;9.828;2023-02-27T10:38:01;2.20;;;1.70;;
54408;SDS011;40315;48.620;9.828;2023-02-27T10:40:31;4.27;;;2.10;;
54408;SDS011;40315;48.620;9.828;2023-02-27T10:43:03;2.50;;;1.70;;
54408;SDS011;40315;48.620;9.828;2023-02-27T10:45:32;2.70;;;1.83;;
54408;SDS011;40315;48.620;9.828;2023-02-27T10:48:00;3.07;;;2.20;;
54408;SDS011;40315;48.620;9.828;2023-02-27T10:50:29;2.70;;;1.60;;
54408;SDS011;40315;48.620;9.828;2023-02-27T10:53:00;4.60;;;2.00;;
54408;SDS011;40315;48.620;9.828;2023-02-27T10:55:29;4.60;;;1.93;;
54408;SDS011;40315;48.620;9.828;2023-02-27T10:57:58;3.13;;;1.50;;
54408;SDS011;40315;48.620;9.828;2023-02-27T11:00:39;2.23;;;1.63;;
54408;SDS011;40315;48.620;9.828;2023-02-27T11:03:17;2.37;;;1.90;;
54408;SDS011;40315;48.620;9.828;2023-02-27T11:05:52;1.90;;;1.70;;
54408;SDS011;40315;48.620;9.828;2023-02-27T11:08:23;1.93;;;1.60;;
54408;SDS011;40315;48.620;9.828;2023-02-27T11:10:57;3.00;;;2.17;;
54408;SDS011;40315;48.620;9.828;2023-02-27T11:13:26;4.10;;;2.40;;
54408;SDS011;40315;48.620;9.828;2023-02-27T11:16:06;2.50;;;1.90;;
54408;SDS011;40315;48.620;9.828;2023-02-27T11:18:38;2.57;;;2.13;;
54408;SDS011;40315;48.620;9.828;2023-02-27T11:21:12;3.53;;;2.13;;
54408;SDS011;40315;48.620;9.828;2023-02-27T11:23:52;2.17;;;1.70;;
54408;SDS011;40315;48.620;9.828;2023-02-27T11:26:28;3.33;;;2.10;;
54408;SDS011;40315;48.620;9.828;2023-02-27T11:29:02;3.50;;;1.90;;
54408;SDS011;40315;48.620;9.828;2023-02-27T11:31:44;2.87;;;2.17;;
54408;SDS011;40315;48.620;9.828;2023-02-27T11:34:18;2.43;;;1.77;;
54408;SDS011;40315;48.620;9.828;2023-02-27T11:36:55;4.07;;;1.90;;
54408;SDS011;40315;48.620;9.828;2023-02-27T11:39:28;2.50;;;1.90;;
54408;SDS011;40315;48.620;9.828;2023-02-27T11:42:10;2.13;;;1.70;;
54408;SDS011;40315;48.620;9.828;2023-02-27T11:44:46;2.40;;;2.10;;
54408;SDS011;40315;48.620;9.828;2023-02-27T11:47:24;2.47;;;1.67;;
54408;SDS011;40315;48.620;9.828;2023-02-27T11:50:01;3.60;;;1.77;;
54408;SDS011;40315;48.620;9.828;2023-02-27T11:52:49;4.50;;;1.70;;
54408;SDS011;40315;48.620;9.828;2023-02-27T11:55:22;3.47;;;1.90;;
54408;SDS011;40315;48.620;9.828;2023-02-27T11:57:52;2.53;;;1.50;;
54408;SDS011;40315;48.620;9.828;2023-02-27T12:00:25;3.33;;;1.70;;
54408;SDS011;40315;48.620;9.828;2023-02-27T12:02:59;3.07;;;1.87;;
54408;SDS011;40315;48.620;9.828;2023-02-27T12:05:33;2.90;;;1.57;;
54408;SDS011;40315;48.620;9.828;2023-02-27T12:08:09;2.67;;;1.60;;
54408;SDS011;40315;48.620;9.828;2023-02-27T12:10:43;2.13;;;1.70;;
54408;SDS011;40315;48.620;9.828;2023-02-27T12:13:16;1.77;;;1.30;;
54408;SDS011;40315;48.620;9.828;2023-02-27T12:15:47;3.70;;;1.77;;
54408;SDS011;40315;48.620;9.828;2023-02-27T12:18:22;2.57;;;1.70;;
54408;SDS011;40315;48.620;9.828;2023-02-27T12:20:54;4.03;;;2.03;;
54408;SDS011;40315;48.620;9.828;2023-02-27T12:23:25;4.60;;;1.87;;
54408;SDS011;40315;48.620;9.828;2023-02-27T12:26:04;3.80;;;2.07;;
54408;SDS011;40315;48.620;9.828;2023-02-27T12:28:42;2.17;;;1.87;;
54408;SDS011;40315;48.620;9.828;2023-02-27T12:31:23;3.93;;;2.30;;
54408;SDS011;40315;48.620;9.828;2023-02-27T12:34:10;2.33;;;1.63;;
54408;SDS011;40315;48.620;9.828;2023-02-27T12:36:45;2.30;;;1.70;;
54408;SDS011;40315;48.620;9.828;2023-02-27T12:39:14;3.50;;;1.70;;
54408;SDS011;40315;48.620;9.828;2023-02-27T12:41:57;2.50;;;1.70;;
54408;SDS011;40315;48.620;9.828;2023-02-27T12:45:15;1.53;;;1.30;;
54408;SDS011;40315;48.620;9.828;2023-02-27T12:48:01;3.17;;;1.87;;
54408;SDS011;40315;48.620;9.828;2023-02-27T12:50:43;3.60;;;1.63;;
54408;SDS011;40315;48.620;9.828;2023-02-27T12:53:26;1.70;;;1.60;;
54408;SDS011;40315;48.620;9.828;2023-02-27T12:56:12;2.90;;;1.60;;
54408;SDS011;40315;48.620;9.828;2023-02-27T12:58:43;2.83;;;1.70;;
54408;SDS011;40315;48.620;9.828;2023-02-27T13:01:19;2.30;;;1.60;;
54408;SDS011;40315;48.620;9.828;2023-02-27T13:03:59;2.57;;;1.67;;
54408;SDS011;40315;48.620;9.828;2023-02-27T13:06:35;2.63;;;1.60;;
54408;SDS011;40315;48.620;9.828;2023-02-27T13:09:13;3.90;;;1.93;;
54408;SDS011;40315;48.620;9.828;2023-02-27T13:11:56;2.60;;;1.43;;
54408;SDS011;40315;48.620;9.828;2023-02-27T13:14:36;3.53;;;1.77;;
54408;SDS011;40315;48.620;9.828;2023-02-27T13:17:15;3.57;;;1.53;;
54408;SDS011;40315;48.620;9.828;2023-02-27T13:19:47;2.17;;;1.97;;
54408;SDS011;40315;48.620;9.828;2023-02-27T13:22:21;2.77;;;1.70;;
54408;SDS011;40315;48.620;9.828;2023-02-27T13:24:57;2.07;;;1.50;;
54408;SDS011;40315;48.620;9.828;2023-02-27T13:27:30;2.40;;;1.40;;
54408;SDS011;40315;48.620;9.828;2023-02-27T13:30:07;1.60;;;1.30;;
54408;SDS011;40315;48.620;9.828;2023-02-27T13:32:40;3.43;;;1.80;;
54408;SDS011;40315;48.620;9.828;2023-02-27T13:38:02;2.63;;;1.37;;
54408;SDS011;40315;48.620;9.828;2023-02-27T13:40:49;2.43;;;1.47;;
54408;SDS011;40315;48.620;9.828;2023-02-27T13:43:27;3.13;;;1.90;;
54408;SDS011;40315;48.620;9.828;2023-02-27T13:45:58;2.50;;;1.57;;
54408;SDS011;40315;48.620;9.828;2023-02-27T13:48:41;2.85;;;1.83;;
54408;SDS011;40315;48.620;9.828;2023-02-27T13:54:13;1.98;;;1.85;;
54408;SDS011;40315;48.620;9.828;2023-02-27T13:56:48;1.73;;;1.55;;
54408;SDS011;40315;48.620;9.828;2023-02-27T13:59:18;2.35;;;1.73;;
54408;SDS011;40315;48.620;9.828;2023-02-27T14:01:48;2.13;;;1.60;;
54408;SDS011;40315;48.620;9.828;2023-02-27T14:04:17;2.90;;;2.00;;
54408;SDS011;40315;48.620;9.828;2023-02-27T14:06:46;4.03;;;1.80;;
54408;SDS011;40315;48.620;9.828;2023-02-27T14:09:16;2.10;;;1.90;;
54408;SDS011;40315;48.620;9.828;2023-02-27T14:11:50;2.37;;;1.80;;
54408;SDS011;40315;48.620;9.828;2023-02-27T14:14:36;3.77;;;2.50;;
54408;SDS011;40315;48.620;9.828;2023-02-27T14:17:09;1.70;;;1.60;;
54408;SDS011;40315;48.620;9.828;2023-02-27T14:19:43;4.43;;;3.27;;
54408;SDS011;40315;48.620;9.828;2023-02-27T14:22:28;2.67;;;1.90;;
54408;SDS011;40315;48.620;9.828;2023-02-27T14:25:16;3.83;;;2.00;;
54408;SDS011;40315;48.620;9.828;2023-02-27T14:27:55;4.30;;;1.80;;
54408;SDS011;40315;48.620;9.828;2023-02-27T14:30:25;2.83;;;1.80;;
54408;SDS011;40315;48.620;9.828;2023-02-27T14:32:57;2.63;;;1.87;;
54408;SDS011;40315;48.620;9.828;2023-02-27T14:35:29;4.83;;;1.90;;
54408;SDS011;40315;48.620;9.828;2023-02-27T14:37:57;3.33;;;1.87;;
54408;SDS011;40315;48.620;9.828;2023-02-27T14:40:32;4.30;;;2.70;;
54408;SDS011;40315;48.620;9.828;2023-02-27T14:43:07;4.20;;;1.90;;
54408;SDS011;40315;48.620;9.828;2023-02-27T14:45:40;2.07;;;1.67;;
54408;SDS011;40315;48.620;9.828;2023-02-27T14:48:08;1.70;;;1.60;;
54408;SDS011;40315;48.620;9.828;2023-02-27T14:50:37;3.83;;;1.80;;
54408;SDS011;40315;48.620;9.828;2023-02-27T14:53:19;1.80;;;1.60;;
54408;SDS011;40315;48.620;9.828;2023-02-27T14:55:53;3.30;;;2.03;;
54408;SDS011;40315;48.620;9.828;2023-02-27T14:58:24;4.23;;;2.00;;
54408;SDS011;40315;48.620;9.828;2023-02-27T15:00:57;2.37;;;1.83;;
54408;SDS011;40315;48.620;9.828;2023-02-27T15:03:30;4.13;;;1.73;;
54408;SDS011;40315;48.620;9.828;2023-02-27T15:06:01;3.20;;;1.97;;
54408;SDS011;40315;48.620;9.828;2023-02-27T15:08:31;2.90;;;2.20;;
54408;SDS011;40315;48.620;9.828;2023-02-27T15:11:05;1.40;;;1.30;;
54408;SDS011;40315;48.620;9.828;2023-02-27T15:13:36;3.53;;;1.90;;
54408;SDS011;40315;48.620;9.828;2023-02-27T15:19:09;3.13;;;1.63;;
54408;SDS011;40315;48.620;9.828;2023-02-27T15:21:44;5.50;;;1.57;;
54408;SDS011;40315;48.620;9.828;2023-02-27T15:24:24;4.17;;;1.90;;
54408;SDS011;40315;48.620;9.828;2023-02-27T15:26:56;2.43;;;1.70;;
54408;SDS011;40315;48.620;9.828;2023-02-27T15:29:28;2.03;;;1.70;;
54408;SDS011;40315;48.620;9.828;2023-02-27T15:31:59;2.63;;;1.90;;
54408;SDS011;40315;48.620;9.828;2023-02-27T15:34:26;2.57;;;1.80;;
54408;SDS011;40315;48.620;9.828;2023-02-27T15:36:55;4.00;;;1.93;;
54408;SDS011;40315;48.620;9.828;2023-02-27T15:39:24;2.00;;;1.60;;
54408;SDS011;40315;48.620;9.828;2023-02-27T15:41:53;2.90;;;1.87;;
54408;SDS011;40315;48.620;9.828;2023-02-27T15:44:25;3.23;;;2.00;;
54408;SDS011;40315;48.620;9.828;2023-02-27T15:46:56;4.17;;;2.50;;
54408;SDS011;40315;48.620;9.828;2023-02-27T15:49:24;3.07;;;2.10;;
54408;SDS011;40315;48.620;9.828;2023-02-27T15:51:57;1.70;;;1.60;;
54408;SDS011;40315;48.620;9.828;2023-02-27T15:54:30;3.80;;;2.30;;
54408;SDS011;40315;48.620;9.828;2023-02-27T15:57:03;3.33;;;1.80;;
54408;SDS011;40315;48.620;9.828;2023-02-27T15:59:32;3.27;;;1.87;;
54408;SDS011;40315;48.620;9.828;2023-02-27T16:02:05;2.57;;;1.77;;
54408;SDS011;40315;48.620;9.828;2023-02-27T16:04:44;2.00;;;1.60;;
54408;SDS011;40315;48.620;9.828;2023-02-27T16:07:16;3.70;;;1.70;;
54408;SDS011;40315;48.620;9.828;2023-02-27T16:09:50;3.47;;;1.60;;
54408;SDS011;40315;48.620;9.828;2023-02-27T16:12:23;3.50;;;1.80;;
54408;SDS011;40315;48.620;9.828;2023-02-27T16:17:59;2.63;;;1.90;;
54408;SDS011;40315;48.620;9.828;2023-02-27T16:20:37;3.60;;;1.77;;
54408;SDS011;40315;48.620;9.828;2023-02-27T16:23:13;3.47;;;1.40;;
54408;SDS011;40315;48.620;9.828;2023-02-27T16:25:58;2.23;;;1.50;;
54408;SDS011;40315;48.620;9.828;2023-02-27T16:28:31;4.13;;;1.57;;
54408;SDS011;40315;48.620;9.828;2023-02-27T16:31:01;3.47;;;1.50;;
54408;SDS011;40315;48.620;9.828;2023-02-27T16:33:30;3.03;;;1.60;;
54408;SDS011;40315;48.620;9.828;2023-02-27T16:36:04;1.90;;;1.23;;
54408;SDS011;40315;48.620;9.828;2023-02-27T16:38:40;2.43;;;1.67;;
54408;SDS011;40315;48.620;9.828;2023-02-27T16:41:08;2.50;;;1.30;;
54408;SDS011;40315;48.620;9.828;2023-02-27T16:43:38;3.57;;;1.60;;
54408;SDS011;40315;48.620;9.828;2023-02-27T16:46:05;1.90;;;1.47;;
54408;SDS011;40315;48.620;9.828;2023-02-27T16:48:33;1.93;;;1.43;;
54408;SDS011;40315;48.620;9.828;2023-02-27T16:51:00;3.50;;;1.80;;
54408;SDS011;40315;48.620;9.828;2023-02-27T16:53:28;4.97;;;2.07;;
54408;SDS011;40315;48.620;9.828;2023-02-27T16:55:55;11.57;;;4.67;;
54408;SDS011;40315;48.620;9.828;2023-02-27T16:58:22;1.50;;;1.40;;
54408;SDS011;40315;48.620;9.828;2023-02-27T17:00:51;4.23;;;1.50;;
54408;SDS011;40315;48.620;9.828;2023-02-27T17:03:21;2.37;;;1.60;;
54408;SDS011;40315;48.620;9.828;2023-02-27T17:05:48;3.77;;;1.60;;
54408;SDS011;40315;48.620;9.828;2023-02-27T17:08:15;2.33;;;1.57;;
54408;SDS011;40315;48.620;9.828;2023-02-27T17:10:43;3.40;;;2.00;;
54408;SDS011;40315;48.620;9.828;2023-02-27T17:13:11;2.40;;;1.87;;
54408;SDS011;40315;48.620;9.828;2023-02-27T17:15:38;3.47;;;2.00;;
54408;SDS011;40315;48.620;9.828;2023-02-27T17:18:07;3.80;;;1.90;;
54408;SDS011;40315;48.620;9.828;2023-02-27T17:20:34;2.50;;;1.93;;
54408;SDS011;40315;48.620;9.828;2023-02-27T17:23:01;2.60;;;1.53;;
54408;SDS011;40315;48.620;9.828;2023-02-27T17:25:29;2.50;;;1.97;;
54408;SDS011;40315;48.620;9.828;2023-02-27T17:27:56;2.00;;;1.70;;
54408;SDS011;40315;48.620;9.828;2023-02-27T17:30:24;2.63;;;1.63;;
54408;SDS011;40315;48.620;9.828;2023-02-27T17:32:52;4.07;;;1.73;;
54408;SDS011;40315;48.620;9.828;2023-02-27T17:35:21;4.43;;;1.73;;
54408;SDS011;40315;48.620;9.828;2023-02-27T17:37:51;2.50;;;1.97;;
54408;SDS011;40315;48.620;9.828;2023-02-27T17:40:20;2.57;;;1.63;;
54408;SDS011;40315;48.620;9.828;2023-02-27T17:42:47;3.57;;;2.30;;
54408;SDS011;40315;48.620;9.828;2023-02-27T17:45:14;4.70;;;2.40;;
54408;SDS011;40315;48.620;9.828;2023-02-27T17:47:45;2.93;;;2.10;;
54408;SDS011;40315;48.620;9.828;2023-02-27T17:50:15;2.73;;;1.80;;